sensor_id;sensor_type;location;lat;lon;timestamp;temperature;humidity
13742;DHT22;8461;52.356;10.704;2022-08-30T00:00:34;15.10;99.90
13742;DHT22;8461;52.356;10.704;2022-08-30T00:03:19;15.00;99.90
13742;DHT22;8461;52.356;10.704;2022-08-30T00:05:45;14.80;99.90
13742;DHT22;8461;52.356;10.704;2022-08-30T00:08:11;14.70;99.90
13742;DHT22;8461;52.356;10.704;2022-08-30T00:10:38;14.70;99.90
13742;DHT22;8461;52.356;10.704;2022-08-30T00:13:06;14.70;99.90
13742;DHT22;8461;52.356;10.704;2022-08-30T00:15:32;14.70;99.90
13742;DHT22;8461;52.356;10.704;2022-08-30T00:17:58;14.70;99.90
13742;DHT22;8461;52.356;10.704;2022-08-30T00:20:27;14.70;99.90
13742;DHT22;8461;52.356;10.704;2022-08-30T00:22:53;14.70;99.90
13742;DHT22;8461;52.356;10.704;2022-08-30T00:25:20;14.60;99.90
13742;DHT22;8461;52.356;10.704;2022-08-30T00:27:45;14.50;99.90
13742;DHT22;8461;52.356;10.704;2022-08-30T00:30:12;14.50;99.90
13742;DHT22;8461;52.356;10.704;2022-08-30T00:32:39;14.60;99.90
13742;DHT22;8461;52.356;10.704;2022-08-30T00:35:06;14.60;99.90
13742;DHT22;8461;52.356;10.704;2022-08-30T00:37:33;14.60;99.90
13742;DHT22;8461;52.356;10.704;2022-08-30T00:39:59;14.60;99.90
13742;DHT22;8461;52.356;10.704;2022-08-30T00:42:25;14.60;99.90
13742;DHT22;8461;52.356;10.704;2022-08-30T00:44:51;14.60;99.90
13742;DHT22;8461;52.356;10.704;2022-08-30T00:47:16;14.70;99.90
13742;DHT22;8461;52.356;10.704;2022-08-30T00:49:47;14.60;99.90
13742;DHT22;8461;52.356;10.704;2022-08-30T00:52:14;14.60;99.90
13742;DHT22;8461;52.356;10.704;2022-08-30T00:54:43;14.60;99.90
13742;DHT22;8461;52.356;10.704;2022-08-30T00:57:11;14.60;99.90
13742;DHT22;8461;52.356;10.704;2022-08-30T00:59:36;14.60;99.90
13742;DHT22;8461;52.356;10.704;2022-08-30T01:02:03;14.60;99.90
13742;DHT22;8461;52.356;10.704;2022-08-30T01:04:29;14.50;99.90
13742;DHT22;8461;52.356;10.704;2022-08-30T01:06:56;14.50;99.90
13742;DHT22;8461;52.356;10.704;2022-08-30T01:09:22;14.50;99.90
13742;DHT22;8461;52.356;10.704;2022-08-30T01:11:48;14.50;99.90
13742;DHT22;8461;52.356;10.704;2022-08-30T01:14:14;14.50;99.90
13742;DHT22;8461;52.356;10.704;2022-08-30T01:16:42;14.50;99.90
13742;DHT22;8461;52.356;10.704;2022-08-30T01:22:20;14.40;99.90
13742;DHT22;8461;52.356;10.704;2022-08-30T01:24:50;14.40;99.90
13742;DHT22;8461;52.356;10.704;2022-08-30T01:27:17;14.30;99.90
13742;DHT22;8461;52.356;10.704;2022-08-30T01:29:42;14.20;99.90
13742;DHT22;8461;52.356;10.704;2022-08-30T01:32:15;14.20;99.90
13742;DHT22;8461;52.356;10.704;2022-08-30T01:34:43;14.20;99.90
13742;DHT22;8461;52.356;10.704;2022-08-30T01:37:09;14.20;99.90
13742;DHT22;8461;52.356;10.704;2022-08-30T01:39:35;14.20;99.90
13742;DHT22;8461;52.356;10.704;2022-08-30T01:42:02;14.10;99.90
13742;DHT22;8461;52.356;10.704;2022-08-30T01:44:27;14.10;99.90
13742;DHT22;8461;52.356;10.704;2022-08-30T01:46:53;14.10;99.90
13742;DHT22;8461;52.356;10.704;2022-08-30T01:49:19;14.10;99.90
13742;DHT22;8461;52.356;10.704;2022-08-30T01:51:44;14.10;99.90
13742;DHT22;8461;52.356;10.704;2022-08-30T01:54:10;14.20;99.90
13742;DHT22;8461;52.356;10.704;2022-08-30T01:56:36;14.20;99.90
13742;DHT22;8461;52.356;10.704;2022-08-30T01:59:03;14.10;99.90
13742;DHT22;8461;52.356;10.704;2022-08-30T02:01:34;14.10;99.90
13742;DHT22;8461;52.356;10.704;2022-08-30T02:04:02;14.00;99.90
13742;DHT22;8461;52.356;10.704;2022-08-30T02:06:28;14.00;99.90
13742;DHT22;8461;52.356;10.704;2022-08-30T02:08:53;14.00;99.90
13742;DHT22;8461;52.356;10.704;2022-08-30T02:11:19;14.00;99.90
13742;DHT22;8461;52.356;10.704;2022-08-30T02:13:45;14.00;99.90
13742;DHT22;8461;52.356;10.704;2022-08-30T02:16:15;13.90;99.90
13742;DHT22;8461;52.356;10.704;2022-08-30T02:18:41;13.80;99.90
13742;DHT22;8461;52.356;10.704;2022-08-30T02:21:07;13.70;99.90
13742;DHT22;8461;52.356;10.704;2022-08-30T02:23:34;13.70;99.90
13742;DHT22;8461;52.356;10.704;2022-08-30T02:26:00;13.70;99.90
13742;DHT22;8461;52.356;10.704;2022-08-30T02:28:26;13.60;99.90
13742;DHT22;8461;52.356;10.704;2022-08-30T02:30:51;13.50;99.90
13742;DHT22;8461;52.356;10.704;2022-08-30T02:33:17;13.50;99.90
13742;DHT22;8461;52.356;10.704;2022-08-30T02:35:43;13.40;99.90
13742;DHT22;8461;52.356;10.704;2022-08-30T02:38:09;13.50;99.90
13742;DHT22;8461;52.356;10.704;2022-08-30T02:40:35;13.50;99.90
13742;DHT22;8461;52.356;10.704;2022-08-30T02:43:00;13.50;99.90
13742;DHT22;8461;52.356;10.704;2022-08-30T02:45:26;13.40;99.90
13742;DHT22;8461;52.356;10.704;2022-08-30T02:47:52;13.40;99.90
13742;DHT22;8461;52.356;10.704;2022-08-30T02:50:18;13.30;99.90
13742;DHT22;8461;52.356;10.704;2022-08-30T02:52:44;13.30;99.90
13742;DHT22;8461;52.356;10.704;2022-08-30T02:55:10;13.40;99.90
13742;DHT22;8461;52.356;10.704;2022-08-30T02:57:36;13.50;99.90
13742;DHT22;8461;52.356;10.704;2022-08-30T03:00:07;13.50;99.90
13742;DHT22;8461;52.356;10.704;2022-08-30T03:02:33;13.50;99.90
13742;DHT22;8461;52.356;10.704;2022-08-30T03:04:59;13.40;99.90
13742;DHT22;8461;52.356;10.704;2022-08-30T03:07:24;13.40;99.90
13742;DHT22;8461;52.356;10.704;2022-08-30T03:09:50;13.40;99.90
13742;DHT22;8461;52.356;10.704;2022-08-30T03:12:17;13.40;99.90
13742;DHT22;8461;52.356;10.704;2022-08-30T03:14:42;13.40;99.90
13742;DHT22;8461;52.356;10.704;2022-08-30T03:17:09;13.40;99.90
13742;DHT22;8461;52.356;10.704;2022-08-30T03:19:35;13.40;99.90
13742;DHT22;8461;52.356;10.704;2022-08-30T03:22:05;13.50;99.90
13742;DHT22;8461;52.356;10.704;2022-08-30T03:24:32;13.50;99.90
13742;DHT22;8461;52.356;10.704;2022-08-30T03:26:58;13.50;99.90
13742;DHT22;8461;52.356;10.704;2022-08-30T03:29:23;13.50;99.90
13742;DHT22;8461;52.356;10.704;2022-08-30T03:31:49;13.40;99.90
13742;DHT22;8461;52.356;10.704;2022-08-30T03:34:15;13.50;99.90
13742;DHT22;8461;52.356;10.704;2022-08-30T03:36:41;13.50;99.90
13742;DHT22;8461;52.356;10.704;2022-08-30T03:39:08;13.50;99.90
13742;DHT22;8461;52.356;10.704;2022-08-30T03:41:33;13.50;99.90
13742;DHT22;8461;52.356;10.704;2022-08-30T03:44:00;13.50;99.90
13742;DHT22;8461;52.356;10.704;2022-08-30T03:46:26;13.60;99.90
13742;DHT22;8461;52.356;10.704;2022-08-30T03:48:52;13.60;99.90
13742;DHT22;8461;52.356;10.704;2022-08-30T03:51:20;13.50;99.90
13742;DHT22;8461;52.356;10.704;2022-08-30T03:53:46;13.50;99.90
13742;DHT22;8461;52.356;10.704;2022-08-30T03:56:12;13.50;99.90
13742;DHT22;8461;52.356;10.704;2022-08-30T03:58:37;13.50;99.90
13742;DHT22;8461;52.356;10.704;2022-08-30T04:01:05;13.60;99.90
13742;DHT22;8461;52.356;10.704;2022-08-30T04:03:30;13.60;99.90
13742;DHT22;8461;52.356;10.704;2022-08-30T04:05:56;13.70;99.90
13742;DHT22;8461;52.356;10.704;2022-08-30T04:08:22;13.70;99.90
13742;DHT22;8461;52.356;10.704;2022-08-30T04:10:48;13.70;99.90
13742;DHT22;8461;52.356;10.704;2022-08-30T04:13:14;13.70;99.90
13742;DHT22;8461;52.356;10.704;2022-08-30T04:15:40;13.70;99.90
13742;DHT22;8461;52.356;10.704;2022-08-30T04:18:05;13.70;99.90
13742;DHT22;8461;52.356;10.704;2022-08-30T04:20:31;13.70;99.90
13742;DHT22;8461;52.356;10.704;2022-08-30T04:22:56;13.70;99.90
13742;DHT22;8461;52.356;10.704;2022-08-30T04:25:22;13.70;99.90
13742;DHT22;8461;52.356;10.704;2022-08-30T04:27:48;13.70;99.90
13742;DHT22;8461;52.356;10.704;2022-08-30T04:30:17;13.70;99.90
13742;DHT22;8461;52.356;10.704;2022-08-30T04:32:43;13.70;99.90
13742;DHT22;8461;52.356;10.704;2022-08-30T04:35:09;13.70;99.90
13742;DHT22;8461;52.356;10.704;2022-08-30T04:37:36;13.80;99.90
13742;DHT22;8461;52.356;10.704;2022-08-30T04:40:04;13.80;99.90
13742;DHT22;8461;52.356;10.704;2022-08-30T04:42:32;13.90;99.90
13742;DHT22;8461;52.356;10.704;2022-08-30T04:45:01;13.90;99.90
13742;DHT22;8461;52.356;10.704;2022-08-30T04:47:27;13.80;99.90
13742;DHT22;8461;52.356;10.704;2022-08-30T04:49:53;13.90;99.90
13742;DHT22;8461;52.356;10.704;2022-08-30T04:52:18;13.90;99.90
13742;DHT22;8461;52.356;10.704;2022-08-30T04:54:44;14.00;99.90
13742;DHT22;8461;52.356;10.704;2022-08-30T04:57:10;14.00;99.90
13742;DHT22;8461;52.356;10.704;2022-08-30T04:59:37;14.00;99.90
13742;DHT22;8461;52.356;10.704;2022-08-30T05:02:03;14.00;99.90
13742;DHT22;8461;52.356;10.704;2022-08-30T05:04:28;14.10;99.90
13742;DHT22;8461;52.356;10.704;2022-08-30T05:06:54;14.10;99.90
13742;DHT22;8461;52.356;10.704;2022-08-30T05:09:20;14.20;99.90
13742;DHT22;8461;52.356;10.704;2022-08-30T05:11:46;14.20;99.90
13742;DHT22;8461;52.356;10.704;2022-08-30T05:14:12;14.20;99.90
13742;DHT22;8461;52.356;10.704;2022-08-30T05:16:38;14.30;99.90
13742;DHT22;8461;52.356;10.704;2022-08-30T05:19:03;14.30;99.90
13742;DHT22;8461;52.356;10.704;2022-08-30T05:21:29;14.40;99.90
13742;DHT22;8461;52.356;10.704;2022-08-30T05:23:59;14.40;99.90
13742;DHT22;8461;52.356;10.704;2022-08-30T05:26:29;14.40;99.90
13742;DHT22;8461;52.356;10.704;2022-08-30T05:28:55;14.50;99.90
13742;DHT22;8461;52.356;10.704;2022-08-30T05:33:47;14.60;99.90
13742;DHT22;8461;52.356;10.704;2022-08-30T05:36:15;14.60;99.90
13742;DHT22;8461;52.356;10.704;2022-08-30T05:38:41;14.70;99.90
13742;DHT22;8461;52.356;10.704;2022-08-30T05:41:07;14.70;99.90
13742;DHT22;8461;52.356;10.704;2022-08-30T05:43:33;14.70;99.90
13742;DHT22;8461;52.356;10.704;2022-08-30T05:46:05;14.70;99.90
13742;DHT22;8461;52.356;10.704;2022-08-30T05:48:31;14.70;99.90
13742;DHT22;8461;52.356;10.704;2022-08-30T05:51:12;14.80;99.90
13742;DHT22;8461;52.356;10.704;2022-08-30T05:53:39;14.80;99.90
13742;DHT22;8461;52.356;10.704;2022-08-30T05:56:07;14.80;99.90
13742;DHT22;8461;52.356;10.704;2022-08-30T05:58:33;14.80;99.90
13742;DHT22;8461;52.356;10.704;2022-08-30T06:00:59;14.80;99.90
13742;DHT22;8461;52.356;10.704;2022-08-30T06:03:25;14.90;99.90
13742;DHT22;8461;52.356;10.704;2022-08-30T06:05:51;15.00;99.90
13742;DHT22;8461;52.356;10.704;2022-08-30T06:08:17;15.00;99.90
13742;DHT22;8461;52.356;10.704;2022-08-30T06:10:42;15.10;99.90
13742;DHT22;8461;52.356;10.704;2022-08-30T06:13:08;15.20;99.90
13742;DHT22;8461;52.356;10.704;2022-08-30T06:15:33;15.20;99.90
13742;DHT22;8461;52.356;10.704;2022-08-30T06:17:59;15.30;99.90
13742;DHT22;8461;52.356;10.704;2022-08-30T06:20:25;15.30;99.90
13742;DHT22;8461;52.356;10.704;2022-08-30T06:22:50;15.40;99.90
13742;DHT22;8461;52.356;10.704;2022-08-30T06:25:16;15.40;99.90
13742;DHT22;8461;52.356;10.704;2022-08-30T06:27:42;15.50;99.90
13742;DHT22;8461;52.356;10.704;2022-08-30T06:30:09;15.40;99.90
13742;DHT22;8461;52.356;10.704;2022-08-30T06:32:36;15.50;99.90
13742;DHT22;8461;52.356;10.704;2022-08-30T06:35:04;15.40;99.90
13742;DHT22;8461;52.356;10.704;2022-08-30T06:37:31;15.40;99.90
13742;DHT22;8461;52.356;10.704;2022-08-30T06:39:58;15.40;99.90
13742;DHT22;8461;52.356;10.704;2022-08-30T06:42:24;15.50;99.90
13742;DHT22;8461;52.356;10.704;2022-08-30T06:44:57;15.60;99.90
13742;DHT22;8461;52.356;10.704;2022-08-30T06:47:23;15.60;99.90
13742;DHT22;8461;52.356;10.704;2022-08-30T06:49:48;15.60;99.90
13742;DHT22;8461;52.356;10.704;2022-08-30T06:52:14;15.50;99.90
13742;DHT22;8461;52.356;10.704;2022-08-30T06:54:39;15.40;99.90
13742;DHT22;8461;52.356;10.704;2022-08-30T06:57:05;15.50;99.90
13742;DHT22;8461;52.356;10.704;2022-08-30T06:59:30;15.50;99.90
13742;DHT22;8461;52.356;10.704;2022-08-30T07:01:56;15.60;99.90
13742;DHT22;8461;52.356;10.704;2022-08-30T07:04:22;15.70;99.90
13742;DHT22;8461;52.356;10.704;2022-08-30T07:06:48;15.70;99.90
13742;DHT22;8461;52.356;10.704;2022-08-30T07:09:14;15.80;99.90
13742;DHT22;8461;52.356;10.704;2022-08-30T07:11:39;15.80;99.90
13742;DHT22;8461;52.356;10.704;2022-08-30T07:14:05;15.90;99.90
13742;DHT22;8461;52.356;10.704;2022-08-30T07:16:32;16.00;99.90
13742;DHT22;8461;52.356;10.704;2022-08-30T07:18:58;15.90;99.90
13742;DHT22;8461;52.356;10.704;2022-08-30T07:21:39;15.90;99.90
13742;DHT22;8461;52.356;10.704;2022-08-30T07:24:07;16.00;99.90
13742;DHT22;8461;52.356;10.704;2022-08-30T07:26:43;16.00;99.90
13742;DHT22;8461;52.356;10.704;2022-08-30T07:29:11;16.10;99.90
13742;DHT22;8461;52.356;10.704;2022-08-30T07:31:37;16.10;99.90
13742;DHT22;8461;52.356;10.704;2022-08-30T07:34:04;16.10;99.90
13742;DHT22;8461;52.356;10.704;2022-08-30T07:36:30;16.10;99.90
13742;DHT22;8461;52.356;10.704;2022-08-30T07:38:55;16.10;99.90
13742;DHT22;8461;52.356;10.704;2022-08-30T07:41:39;16.20;99.90
13742;DHT22;8461;52.356;10.704;2022-08-30T07:44:07;16.20;99.90
13742;DHT22;8461;52.356;10.704;2022-08-30T07:46:33;16.20;99.90
13742;DHT22;8461;52.356;10.704;2022-08-30T07:48:59;16.10;99.90
13742;DHT22;8461;52.356;10.704;2022-08-30T07:51:26;16.10;99.90
13742;DHT22;8461;52.356;10.704;2022-08-30T07:53:53;16.20;99.90
13742;DHT22;8461;52.356;10.704;2022-08-30T07:56:19;16.10;99.90
13742;DHT22;8461;52.356;10.704;2022-08-30T07:58:45;16.10;99.90
13742;DHT22;8461;52.356;10.704;2022-08-30T08:01:12;16.10;99.90
13742;DHT22;8461;52.356;10.704;2022-08-30T08:03:38;16.20;99.90
13742;DHT22;8461;52.356;10.704;2022-08-30T08:06:05;16.20;99.90
13742;DHT22;8461;52.356;10.704;2022-08-30T08:08:32;16.30;99.90
13742;DHT22;8461;52.356;10.704;2022-08-30T08:11:09;16.30;99.90
13742;DHT22;8461;52.356;10.704;2022-08-30T08:13:37;16.50;99.90
13742;DHT22;8461;52.356;10.704;2022-08-30T08:16:03;16.60;99.90
13742;DHT22;8461;52.356;10.704;2022-08-30T08:18:28;16.70;99.90
13742;DHT22;8461;52.356;10.704;2022-08-30T08:20:56;16.80;99.90
13742;DHT22;8461;52.356;10.704;2022-08-30T08:23:21;16.80;99.90
13742;DHT22;8461;52.356;10.704;2022-08-30T08:25:47;17.00;99.90
13742;DHT22;8461;52.356;10.704;2022-08-30T08:28:12;16.90;99.90
13742;DHT22;8461;52.356;10.704;2022-08-30T08:30:38;17.00;99.90
13742;DHT22;8461;52.356;10.704;2022-08-30T08:33:05;17.00;99.90
13742;DHT22;8461;52.356;10.704;2022-08-30T08:35:30;17.00;99.90
13742;DHT22;8461;52.356;10.704;2022-08-30T08:37:57;17.00;99.90
13742;DHT22;8461;52.356;10.704;2022-08-30T08:40:22;17.10;99.90
13742;DHT22;8461;52.356;10.704;2022-08-30T08:43:02;17.10;99.90
13742;DHT22;8461;52.356;10.704;2022-08-30T08:50:41;17.30;99.90
13742;DHT22;8461;52.356;10.704;2022-08-30T08:53:33;17.30;99.90
13742;DHT22;8461;52.356;10.704;2022-08-30T08:56:19;17.40;99.90
13742;DHT22;8461;52.356;10.704;2022-08-30T08:58:53;17.50;99.90
13742;DHT22;8461;52.356;10.704;2022-08-30T09:01:21;17.60;99.90
13742;DHT22;8461;52.356;10.704;2022-08-30T09:03:48;17.60;99.90
13742;DHT22;8461;52.356;10.704;2022-08-30T09:09:03;17.90;99.90
13742;DHT22;8461;52.356;10.704;2022-08-30T09:11:32;18.00;99.90
13742;DHT22;8461;52.356;10.704;2022-08-30T09:13:59;18.20;99.90
13742;DHT22;8461;52.356;10.704;2022-08-30T09:16:51;18.30;99.90
13742;DHT22;8461;52.356;10.704;2022-08-30T09:24:49;18.70;99.90
13742;DHT22;8461;52.356;10.704;2022-08-30T09:27:19;18.90;99.90
13742;DHT22;8461;52.356;10.704;2022-08-30T09:29:54;19.10;99.90
13742;DHT22;8461;52.356;10.704;2022-08-30T09:37:56;19.20;99.90
13742;DHT22;8461;52.356;10.704;2022-08-30T09:40:43;19.30;99.90
13742;DHT22;8461;52.356;10.704;2022-08-30T09:43:20;19.50;99.90
13742;DHT22;8461;52.356;10.704;2022-08-30T09:48:32;19.60;99.90
13742;DHT22;8461;52.356;10.704;2022-08-30T09:56:37;19.50;99.90
13742;DHT22;8461;52.356;10.704;2022-08-30T09:59:21;19.40;99.90
13742;DHT22;8461;52.356;10.704;2022-08-30T10:07:24;19.70;99.90
13742;DHT22;8461;52.356;10.704;2022-08-30T10:10:18;19.90;99.90
13742;DHT22;8461;52.356;10.704;2022-08-30T10:15:59;20.00;99.90
13742;DHT22;8461;52.356;10.704;2022-08-30T10:18:39;20.00;99.90
13742;DHT22;8461;52.356;10.704;2022-08-30T10:21:11;20.20;99.90
13742;DHT22;8461;52.356;10.704;2022-08-30T10:23:43;20.20;99.90
13742;DHT22;8461;52.356;10.704;2022-08-30T10:26:27;20.30;99.90
13742;DHT22;8461;52.356;10.704;2022-08-30T10:29:02;20.30;99.90
13742;DHT22;8461;52.356;10.704;2022-08-30T10:31:47;20.10;99.90
13742;DHT22;8461;52.356;10.704;2022-08-30T10:34:21;20.20;99.90
13742;DHT22;8461;52.356;10.704;2022-08-30T10:36:55;20.20;99.90
13742;DHT22;8461;52.356;10.704;2022-08-30T10:39:26;20.10;99.90
13742;DHT22;8461;52.356;10.704;2022-08-30T10:41:58;20.10;99.90
13742;DHT22;8461;52.356;10.704;2022-08-30T10:44:29;20.20;99.90
13742;DHT22;8461;52.356;10.704;2022-08-30T10:49:47;20.40;99.90
13742;DHT22;8461;52.356;10.704;2022-08-30T10:52:41;20.80;99.90
13742;DHT22;8461;52.356;10.704;2022-08-30T10:55:18;21.10;99.90
13742;DHT22;8461;52.356;10.704;2022-08-30T10:57:45;21.00;99.90
13742;DHT22;8461;52.356;10.704;2022-08-30T11:00:40;20.90;99.90
13742;DHT22;8461;52.356;10.704;2022-08-30T11:06:08;20.60;99.90
13742;DHT22;8461;52.356;10.704;2022-08-30T11:11:56;20.40;99.90
13742;DHT22;8461;52.356;10.704;2022-08-30T11:14:23;20.60;99.90
13742;DHT22;8461;52.356;10.704;2022-08-30T11:16:50;20.90;99.90
13742;DHT22;8461;52.356;10.704;2022-08-30T11:19:27;21.10;99.90
13742;DHT22;8461;52.356;10.704;2022-08-30T11:22:11;21.30;99.90
13742;DHT22;8461;52.356;10.704;2022-08-30T11:24:57;21.40;99.90
13742;DHT22;8461;52.356;10.704;2022-08-30T11:35:49;21.10;99.90
13742;DHT22;8461;52.356;10.704;2022-08-30T11:40:49;21.20;99.90
13742;DHT22;8461;52.356;10.704;2022-08-30T11:46:39;21.00;99.90
13742;DHT22;8461;52.356;10.704;2022-08-30T11:49:39;21.00;99.90
13742;DHT22;8461;52.356;10.704;2022-08-30T11:52:29;20.90;99.90
13742;DHT22;8461;52.356;10.704;2022-08-30T11:55:26;20.80;99.90
13742;DHT22;8461;52.356;10.704;2022-08-30T12:00:47;20.90;99.90
13742;DHT22;8461;52.356;10.704;2022-08-30T12:03:32;21.00;99.90
13742;DHT22;8461;52.356;10.704;2022-08-30T12:06:02;21.30;99.90
13742;DHT22;8461;52.356;10.704;2022-08-30T12:11:07;21.90;99.90
13742;DHT22;8461;52.356;10.704;2022-08-30T12:13:53;22.10;99.90
13742;DHT22;8461;52.356;10.704;2022-08-30T12:16:22;22.40;99.90
13742;DHT22;8461;52.356;10.704;2022-08-30T12:18:56;22.60;99.90
13742;DHT22;8461;52.356;10.704;2022-08-30T12:21:34;22.90;99.90
13742;DHT22;8461;52.356;10.704;2022-08-30T12:24:16;23.10;99.90
13742;DHT22;8461;52.356;10.704;2022-08-30T12:26:47;23.40;99.90
13742;DHT22;8461;52.356;10.704;2022-08-30T12:29:22;23.60;99.90
13742;DHT22;8461;52.356;10.704;2022-08-30T12:32:04;23.50;99.90
13742;DHT22;8461;52.356;10.704;2022-08-30T12:37:08;22.80;99.90
13742;DHT22;8461;52.356;10.704;2022-08-30T12:39:38;22.80;99.90
13742;DHT22;8461;52.356;10.704;2022-08-30T12:42:24;22.80;99.90
13742;DHT22;8461;52.356;10.704;2022-08-30T12:44:52;22.70;99.90
13742;DHT22;8461;52.356;10.704;2022-08-30T12:47:23;22.80;99.90
13742;DHT22;8461;52.356;10.704;2022-08-30T12:49:51;22.70;99.90
13742;DHT22;8461;52.356;10.704;2022-08-30T12:52:22;22.70;99.90
13742;DHT22;8461;52.356;10.704;2022-08-30T12:55:26;22.80;99.90
13742;DHT22;8461;52.356;10.704;2022-08-30T13:00:30;22.90;99.90
13742;DHT22;8461;52.356;10.704;2022-08-30T13:02:59;22.90;99.90
13742;DHT22;8461;52.356;10.704;2022-08-30T13:11:04;22.90;99.90
13742;DHT22;8461;52.356;10.704;2022-08-30T13:13:39;23.00;99.90
13742;DHT22;8461;52.356;10.704;2022-08-30T13:16:34;23.10;99.90
13742;DHT22;8461;52.356;10.704;2022-08-30T13:21:52;22.90;99.90
13742;DHT22;8461;52.356;10.704;2022-08-30T13:24:17;22.90;99.90
13742;DHT22;8461;52.356;10.704;2022-08-30T13:26:43;22.80;99.90
13742;DHT22;8461;52.356;10.704;2022-08-30T13:29:15;22.70;99.90
13742;DHT22;8461;52.356;10.704;2022-08-30T13:31:41;22.70;99.90
13742;DHT22;8461;52.356;10.704;2022-08-30T13:34:06;22.70;99.90
13742;DHT22;8461;52.356;10.704;2022-08-30T13:36:34;22.80;99.90
13742;DHT22;8461;52.356;10.704;2022-08-30T13:39:02;22.80;99.90
13742;DHT22;8461;52.356;10.704;2022-08-30T13:41:28;22.70;99.90
13742;DHT22;8461;52.356;10.704;2022-08-30T13:43:54;22.70;99.90
13742;DHT22;8461;52.356;10.704;2022-08-30T13:46:20;22.80;99.90
13742;DHT22;8461;52.356;10.704;2022-08-30T13:48:47;22.80;99.90
13742;DHT22;8461;52.356;10.704;2022-08-30T13:51:13;22.80;99.90
13742;DHT22;8461;52.356;10.704;2022-08-30T13:53:39;22.80;99.90
13742;DHT22;8461;52.356;10.704;2022-08-30T13:56:06;22.80;99.90
13742;DHT22;8461;52.356;10.704;2022-08-30T13:58:31;22.90;99.90
13742;DHT22;8461;52.356;10.704;2022-08-30T14:00:58;22.90;99.90
13742;DHT22;8461;52.356;10.704;2022-08-30T14:03:24;22.80;99.90
13742;DHT22;8461;52.356;10.704;2022-08-30T14:05:50;22.80;99.90
13742;DHT22;8461;52.356;10.704;2022-08-30T14:08:19;22.80;99.90
13742;DHT22;8461;52.356;10.704;2022-08-30T14:10:45;22.80;99.90
13742;DHT22;8461;52.356;10.704;2022-08-30T14:13:11;22.80;99.90
13742;DHT22;8461;52.356;10.704;2022-08-30T14:15:37;22.80;99.90
13742;DHT22;8461;52.356;10.704;2022-08-30T14:18:04;22.80;99.90
13742;DHT22;8461;52.356;10.704;2022-08-30T14:20:30;22.80;99.90
13742;DHT22;8461;52.356;10.704;2022-08-30T14:22:56;22.80;99.90
13742;DHT22;8461;52.356;10.704;2022-08-30T14:25:22;22.80;99.90
13742;DHT22;8461;52.356;10.704;2022-08-30T14:27:47;22.90;99.90
13742;DHT22;8461;52.356;10.704;2022-08-30T14:30:13;22.80;99.90
13742;DHT22;8461;52.356;10.704;2022-08-30T14:32:38;22.80;99.90
13742;DHT22;8461;52.356;10.704;2022-08-30T14:35:04;22.70;99.90
13742;DHT22;8461;52.356;10.704;2022-08-30T14:37:30;22.60;99.90
13742;DHT22;8461;52.356;10.704;2022-08-30T14:39:56;22.60;99.90
13742;DHT22;8461;52.356;10.704;2022-08-30T14:42:21;22.60;99.90
13742;DHT22;8461;52.356;10.704;2022-08-30T14:44:47;22.50;99.90
13742;DHT22;8461;52.356;10.704;2022-08-30T14:47:12;22.50;99.90
13742;DHT22;8461;52.356;10.704;2022-08-30T14:49:38;22.40;99.90
13742;DHT22;8461;52.356;10.704;2022-08-30T14:52:04;22.40;99.90
13742;DHT22;8461;52.356;10.704;2022-08-30T14:54:30;22.30;99.90
13742;DHT22;8461;52.356;10.704;2022-08-30T14:56:56;22.20;99.90
13742;DHT22;8461;52.356;10.704;2022-08-30T14:59:23;22.20;99.90
13742;DHT22;8461;52.356;10.704;2022-08-30T15:01:49;22.10;99.90
13742;DHT22;8461;52.356;10.704;2022-08-30T15:04:14;22.10;99.90
13742;DHT22;8461;52.356;10.704;2022-08-30T15:06:42;22.20;99.90
13742;DHT22;8461;52.356;10.704;2022-08-30T15:09:10;22.20;99.90
13742;DHT22;8461;52.356;10.704;2022-08-30T15:11:36;22.10;99.90
13742;DHT22;8461;52.356;10.704;2022-08-30T15:14:03;22.10;99.90
13742;DHT22;8461;52.356;10.704;2022-08-30T15:16:32;22.10;99.90
13742;DHT22;8461;52.356;10.704;2022-08-30T15:18:59;22.10;99.90
13742;DHT22;8461;52.356;10.704;2022-08-30T15:21:31;22.10;99.90
13742;DHT22;8461;52.356;10.704;2022-08-30T15:23:58;22.20;99.90
13742;DHT22;8461;52.356;10.704;2022-08-30T15:26:24;22.30;99.90
13742;DHT22;8461;52.356;10.704;2022-08-30T15:28:49;22.30;99.90
13742;DHT22;8461;52.356;10.704;2022-08-30T15:31:19;22.40;99.90
13742;DHT22;8461;52.356;10.704;2022-08-30T15:33:44;22.30;99.90
13742;DHT22;8461;52.356;10.704;2022-08-30T15:36:10;22.30;99.90
13742;DHT22;8461;52.356;10.704;2022-08-30T15:38:36;22.40;99.90
13742;DHT22;8461;52.356;10.704;2022-08-30T15:41:05;22.40;99.90
13742;DHT22;8461;52.356;10.704;2022-08-30T15:43:31;22.50;99.90
13742;DHT22;8461;52.356;10.704;2022-08-30T15:46:26;22.70;99.90
13742;DHT22;8461;52.356;10.704;2022-08-30T15:48:52;22.60;99.90
13742;DHT22;8461;52.356;10.704;2022-08-30T15:51:20;22.50;99.90
13742;DHT22;8461;52.356;10.704;2022-08-30T15:53:46;22.40;99.90
13742;DHT22;8461;52.356;10.704;2022-08-30T15:56:12;22.40;99.90
13742;DHT22;8461;52.356;10.704;2022-08-30T15:58:38;22.30;99.90
13742;DHT22;8461;52.356;10.704;2022-08-30T16:01:04;22.30;99.90
13742;DHT22;8461;52.356;10.704;2022-08-30T16:03:31;22.10;99.90
13742;DHT22;8461;52.356;10.704;2022-08-30T16:05:57;21.90;99.90
13742;DHT22;8461;52.356;10.704;2022-08-30T16:08:23;21.80;99.90
13742;DHT22;8461;52.356;10.704;2022-08-30T16:10:49;21.80;99.90
13742;DHT22;8461;52.356;10.704;2022-08-30T16:13:15;21.70;99.90
13742;DHT22;8461;52.356;10.704;2022-08-30T16:15:41;21.70;99.90
13742;DHT22;8461;52.356;10.704;2022-08-30T16:18:09;21.70;99.90
13742;DHT22;8461;52.356;10.704;2022-08-30T16:20:35;21.60;99.90
13742;DHT22;8461;52.356;10.704;2022-08-30T16:23:00;21.60;99.90
13742;DHT22;8461;52.356;10.704;2022-08-30T16:25:26;21.60;99.90
13742;DHT22;8461;52.356;10.704;2022-08-30T16:27:51;21.60;99.90
13742;DHT22;8461;52.356;10.704;2022-08-30T16:30:17;21.50;99.90
13742;DHT22;8461;52.356;10.704;2022-08-30T16:32:43;21.40;99.90
13742;DHT22;8461;52.356;10.704;2022-08-30T16:35:10;21.40;99.90
13742;DHT22;8461;52.356;10.704;2022-08-30T16:37:36;21.30;99.90
13742;DHT22;8461;52.356;10.704;2022-08-30T16:40:02;21.30;99.90
13742;DHT22;8461;52.356;10.704;2022-08-30T16:42:28;21.30;99.90
13742;DHT22;8461;52.356;10.704;2022-08-30T16:44:54;21.30;99.90
13742;DHT22;8461;52.356;10.704;2022-08-30T16:47:19;21.20;99.90
13742;DHT22;8461;52.356;10.704;2022-08-30T16:49:45;21.20;99.90
13742;DHT22;8461;52.356;10.704;2022-08-30T16:52:10;21.20;99.90
13742;DHT22;8461;52.356;10.704;2022-08-30T16:54:36;21.20;99.90
13742;DHT22;8461;52.356;10.704;2022-08-30T16:57:02;21.00;99.90
13742;DHT22;8461;52.356;10.704;2022-08-30T16:59:27;20.90;99.90
13742;DHT22;8461;52.356;10.704;2022-08-30T17:01:53;20.90;99.90